createdAt,value
2022-12-24T00:01:00.767Z,2.10
2022-12-24T00:03:27.649Z,2.42
2022-12-24T00:05:54.442Z,2.00
2022-12-24T00:08:21.198Z,2.30
2022-12-24T00:10:52.711Z,2.05
2022-12-24T00:13:19.815Z,2.92
2022-12-24T00:15:46.797Z,3.78
2022-12-24T00:18:13.600Z,3.08
2022-12-24T00:20:40.546Z,2.85
2022-12-24T00:23:07.269Z,2.45
2022-12-24T00:25:33.957Z,2.90
2022-12-24T00:28:00.671Z,2.33
2022-12-24T00:30:27.473Z,1.70
2022-12-24T00:32:54.233Z,1.98
2022-12-24T00:35:20.936Z,2.17
2022-12-24T00:37:49.236Z,1.88
2022-12-24T00:40:17.125Z,2.47
2022-12-24T00:42:44.023Z,1.65
2022-12-24T00:45:11.772Z,2.15
2022-12-24T00:47:38.556Z,1.75
2022-12-24T00:50:06.062Z,2.45
2022-12-24T00:52:32.799Z,2.38
2022-12-24T00:54:59.489Z,2.00
2022-12-24T00:57:26.490Z,2.15
2022-12-24T00:59:53.173Z,2.30
2022-12-24T01:02:19.969Z,2.22
2022-12-24T01:05:05.327Z,2.40
2022-12-24T01:07:32.236Z,2.50
2022-12-24T01:09:58.926Z,3.65
2022-12-24T01:12:25.871Z,1.88
2022-12-24T01:14:52.626Z,1.98
2022-12-24T01:17:19.525Z,2.55
2022-12-24T01:19:46.290Z,3.42
2022-12-24T01:22:13.033Z,2.30
2022-12-24T01:24:43.038Z,1.90
2022-12-24T01:27:09.760Z,2.33
2022-12-24T01:29:36.464Z,2.53
2022-12-24T01:32:03.716Z,1.98
2022-12-24T01:34:30.421Z,1.95
2022-12-24T01:36:57.107Z,2.08
2022-12-24T01:39:23.842Z,2.47
2022-12-24T01:42:09.099Z,2.20
2022-12-24T01:44:40.045Z,2.42
2022-12-24T01:47:12.784Z,2.13
2022-12-24T01:49:48.269Z,2.00
2022-12-24T01:52:33.304Z,3.50
2022-12-24T01:55:10.557Z,1.90
2022-12-24T01:57:42.963Z,2.47
2022-12-24T02:00:13.415Z,1.95
2022-12-24T02:02:43.513Z,2.20
2022-12-24T02:05:15.046Z,2.20
2022-12-24T02:07:43.146Z,2.78
2022-12-24T02:10:12.599Z,2.22
2022-12-24T02:12:40.614Z,2.28
2022-12-24T02:15:10.522Z,2.05
2022-12-24T02:17:49.456Z,2.33
2022-12-24T02:20:31.921Z,2.28
2022-12-24T02:23:26.423Z,2.15
2022-12-24T02:26:11.339Z,2.15
2022-12-24T02:29:15.563Z,2.60
2022-12-24T02:31:52.307Z,1.90
2022-12-24T02:34:23.382Z,2.78
2022-12-24T02:37:15.280Z,1.77
2022-12-24T02:40:15.697Z,2.22
2022-12-24T02:42:50.872Z,3.47
2022-12-24T02:45:22.798Z,2.00
2022-12-24T02:47:51.579Z,2.17
2022-12-24T02:50:18.948Z,1.73
2022-12-24T02:52:47.261Z,1.75
2022-12-24T02:55:16.732Z,1.95
2022-12-24T02:58:04.754Z,1.95
2022-12-24T03:00:41.571Z,2.17
2022-12-24T03:03:33.545Z,1.95
2022-12-24T03:06:27.479Z,4.20
2022-12-24T03:09:02.130Z,2.45
2022-12-24T03:11:29.288Z,1.95
2022-12-24T03:13:59.236Z,2.22
2022-12-24T03:16:28.234Z,2.13
2022-12-24T03:18:57.802Z,2.20
2022-12-24T03:21:29.366Z,2.03
2022-12-24T03:23:56.754Z,2.72
2022-12-24T03:26:25.730Z,2.33
2022-12-24T03:28:52.589Z,2.20
2022-12-24T03:31:19.864Z,1.73
2022-12-24T03:33:47.573Z,1.70
2022-12-24T03:36:14.638Z,1.80
2022-12-24T03:38:41.736Z,2.00
2022-12-24T03:41:08.472Z,1.98
2022-12-24T03:43:35.484Z,2.72
2022-12-24T03:46:08.346Z,2.85
2022-12-24T03:48:36.093Z,2.38
2022-12-24T03:51:03.648Z,2.00
2022-12-24T03:53:30.762Z,2.00
2022-12-24T03:55:57.572Z,1.98
2022-12-24T03:58:24.221Z,2.22
2022-12-24T04:00:52.433Z,2.05
2022-12-24T04:03:19.215Z,3.00
2022-12-24T04:05:45.875Z,1.92
2022-12-24T04:08:12.575Z,1.80
2022-12-24T04:10:39.323Z,2.45
2022-12-24T04:13:06.014Z,2.60
2022-12-24T04:15:32.716Z,2.00
2022-12-24T04:17:59.399Z,2.65
2022-12-24T04:20:26.117Z,2.30
2022-12-24T04:22:53.377Z,1.80
2022-12-24T04:25:20.037Z,1.95
2022-12-24T04:27:46.687Z,2.22
2022-12-24T04:30:13.513Z,2.15
2022-12-24T04:32:40.178Z,2.35
2022-12-24T04:35:07.228Z,2.90
2022-12-24T04:37:34.385Z,2.78
2022-12-24T04:40:01.087Z,2.47
2022-12-24T04:42:27.723Z,1.95
2022-12-24T04:44:54.332Z,1.85
2022-12-24T04:47:21.017Z,2.05
2022-12-24T04:49:47.660Z,2.40
2022-12-24T04:52:14.396Z,2.33
2022-12-24T04:54:41.098Z,2.65
2022-12-24T04:57:07.765Z,2.75
2022-12-24T04:59:34.465Z,2.25
2022-12-24T05:02:01.305Z,2.45
2022-12-24T05:04:28.115Z,2.20
2022-12-24T05:06:54.841Z,2.65
2022-12-24T05:09:21.600Z,2.13
2022-12-24T05:11:48.313Z,1.92
2022-12-24T05:14:14.958Z,2.20
2022-12-24T05:16:41.691Z,1.83
2022-12-24T05:19:08.367Z,1.92
2022-12-24T05:21:35.072Z,2.03
2022-12-24T05:24:19.992Z,2.30
2022-12-24T05:26:50.417Z,3.10
2022-12-24T05:29:17.784Z,2.03
2022-12-24T05:31:45.314Z,2.10
2022-12-24T05:34:14.999Z,2.08
2022-12-24T05:36:41.874Z,1.90
2022-12-24T05:39:15.135Z,2.50
2022-12-24T05:41:43.013Z,2.15
2022-12-24T05:44:09.739Z,2.92
2022-12-24T05:46:36.484Z,2.08
2022-12-24T05:49:03.206Z,2.13
2022-12-24T05:51:29.909Z,2.60
2022-12-24T05:53:56.620Z,2.13
2022-12-24T05:56:25.073Z,2.40
2022-12-24T05:58:53.716Z,2.42
2022-12-24T06:01:22.090Z,2.65
2022-12-24T06:03:50.091Z,2.65
2022-12-24T06:06:22.997Z,1.70
2022-12-24T06:08:51.087Z,1.98
2022-12-24T06:11:20.541Z,2.92
2022-12-24T06:13:47.236Z,1.80
2022-12-24T06:16:16.836Z,3.95
2022-12-24T06:18:44.410Z,2.05
2022-12-24T06:21:12.506Z,2.13
2022-12-24T06:23:40.958Z,3.03
2022-12-24T06:26:09.982Z,2.75
2022-12-24T06:28:38.054Z,2.58
2022-12-24T06:31:06.772Z,2.20
2022-12-24T06:33:34.496Z,2.58
2022-12-24T06:36:01.425Z,2.55
2022-12-24T06:38:31.337Z,2.63
2022-12-24T06:40:58.386Z,2.42
2022-12-24T06:43:25.263Z,2.75
2022-12-24T06:45:53.568Z,3.05
2022-12-24T06:48:20.364Z,2.85
2022-12-24T06:50:47.162Z,3.83
2022-12-24T06:53:13.901Z,3.20
2022-12-24T06:55:40.541Z,2.42
2022-12-24T06:58:07.273Z,2.58
2022-12-24T07:00:34.014Z,2.67
2022-12-24T07:03:00.970Z,3.25
2022-12-24T07:05:27.867Z,3.70
2022-12-24T07:07:54.695Z,3.33
2022-12-24T07:10:22.315Z,3.45
2022-12-24T07:12:49.057Z,3.40
2022-12-24T07:15:16.371Z,3.22
2022-12-24T07:17:43.528Z,2.92
2022-12-24T07:20:14.179Z,2.42
2022-12-24T07:22:40.870Z,2.55
2022-12-24T07:25:07.940Z,4.43
2022-12-24T07:27:34.658Z,2.75
2022-12-24T07:30:01.413Z,2.70
2022-12-24T07:32:28.087Z,4.00
2022-12-24T07:34:54.943Z,2.70
2022-12-24T07:37:21.686Z,2.80
2022-12-24T07:39:48.314Z,3.03
2022-12-24T07:42:15.008Z,2.75
2022-12-24T07:44:41.671Z,4.18
2022-12-24T07:47:08.547Z,4.90
2022-12-24T07:49:36.444Z,3.60
2022-12-24T07:52:04.243Z,4.18
2022-12-24T07:54:31.073Z,2.83
2022-12-24T07:56:57.798Z,2.88
2022-12-24T07:59:24.564Z,2.10
2022-12-24T08:01:51.315Z,2.13
2022-12-24T08:04:18.277Z,1.63
2022-12-24T08:06:44.952Z,2.08
2022-12-24T08:09:11.649Z,2.15
2022-12-24T08:11:38.356Z,1.70
2022-12-24T08:14:05.000Z,1.95
2022-12-24T08:16:31.812Z,1.80
2022-12-24T08:18:58.518Z,1.60
2022-12-24T08:21:25.264Z,2.05
2022-12-24T08:23:51.931Z,1.90
2022-12-24T08:26:18.609Z,4.22
2022-12-24T08:28:45.288Z,1.83
2022-12-24T08:31:11.957Z,2.50
2022-12-24T08:33:38.731Z,1.60
2022-12-24T08:36:05.709Z,1.90
2022-12-24T08:38:32.846Z,1.45
2022-12-24T08:40:59.566Z,1.42
2022-12-24T08:43:27.024Z,1.75
2022-12-24T08:45:54.188Z,1.48
2022-12-24T08:48:21.009Z,1.50
2022-12-24T08:50:47.835Z,1.35
2022-12-24T08:53:14.520Z,1.38
2022-12-24T08:55:41.244Z,1.42
2022-12-24T08:58:08.054Z,1.38
2022-12-24T09:00:34.997Z,1.30
2022-12-24T09:03:01.814Z,1.20
2022-12-24T09:05:29.185Z,1.23
2022-12-24T09:07:55.912Z,1.13
2022-12-24T09:10:23.310Z,1.75
2022-12-24T09:12:51.147Z,1.40
2022-12-24T09:15:18.076Z,1.70
2022-12-24T09:17:44.853Z,1.65
2022-12-24T09:20:11.683Z,1.70
2022-12-24T09:22:39.841Z,1.50
2022-12-24T09:25:07.198Z,1.80
2022-12-24T09:27:34.685Z,1.60
2022-12-24T09:30:01.451Z,2.60
2022-12-24T09:32:28.294Z,3.20
2022-12-24T09:34:55.004Z,3.33
2022-12-24T09:37:21.709Z,2.22
2022-12-24T09:39:48.427Z,1.83
2022-12-24T09:42:51.577Z,1.80
2022-12-24T09:45:18.231Z,1.60
2022-12-24T09:47:54.571Z,2.10
2022-12-24T09:50:27.578Z,1.90
2022-12-24T09:52:55.840Z,1.77
2022-12-24T09:55:45.859Z,1.38
2022-12-24T09:58:21.806Z,1.38
2022-12-24T10:00:50.293Z,1.73
2022-12-24T10:03:18.449Z,1.90
2022-12-24T10:05:57.852Z,1.50
2022-12-24T10:08:33.397Z,1.63
2022-12-24T10:11:15.590Z,1.55
2022-12-24T10:14:01.317Z,1.70
2022-12-24T10:16:28.031Z,1.70
2022-12-24T10:19:26.429Z,1.58
2022-12-24T10:21:59.467Z,1.60
2022-12-24T10:24:35.469Z,1.52
2022-12-24T10:27:16.263Z,1.63
2022-12-24T10:29:47.842Z,1.67
2022-12-24T10:32:28.880Z,1.63
2022-12-24T10:35:02.249Z,1.80
2022-12-24T10:37:30.449Z,1.65
2022-12-24T10:40:02.688Z,2.20
2022-12-24T10:42:50.982Z,1.70
2022-12-24T10:45:21.791Z,1.85
2022-12-24T10:47:52.881Z,2.10
2022-12-24T10:50:29.920Z,2.00
2022-12-24T10:53:07.275Z,1.40
2022-12-24T10:55:33.971Z,1.48
2022-12-24T10:58:13.523Z,1.65
2022-12-24T11:00:40.928Z,1.40
2022-12-24T11:03:13.512Z,2.50
2022-12-24T11:05:41.055Z,3.15
2022-12-24T11:08:13.573Z,2.58
2022-12-24T11:10:44.570Z,2.88
2022-12-24T11:13:53.553Z,2.83
2022-12-24T11:16:30.005Z,2.38
2022-12-24T11:18:59.293Z,3.40
2022-12-24T11:21:29.459Z,3.53
2022-12-24T11:23:59.010Z,2.22
2022-12-24T11:26:29.421Z,2.80
2022-12-24T11:29:23.872Z,2.15
2022-12-24T11:31:52.843Z,2.15
2022-12-24T11:37:20.090Z,2.20
2022-12-24T11:39:51.195Z,3.45
2022-12-24T11:42:34.771Z,2.65
2022-12-24T11:45:05.930Z,2.47
2022-12-24T11:47:40.893Z,2.28
2022-12-24T11:50:32.152Z,2.72
2022-12-24T11:53:50.167Z,3.05
2022-12-24T11:56:37.834Z,4.20
2022-12-24T11:59:29.613Z,3.13
2022-12-24T12:02:05.304Z,2.85
2022-12-24T12:04:36.124Z,3.20
2022-12-24T12:07:02.852Z,3.88
2022-12-24T12:09:33.798Z,4.25
2022-12-24T12:12:16.631Z,3.53
2022-12-24T12:14:48.294Z,3.13
2022-12-24T12:17:54.728Z,2.85
2022-12-24T12:20:35.443Z,2.95
2022-12-24T12:23:14.655Z,2.58
2022-12-24T12:25:58.125Z,2.20
2022-12-24T12:31:16.400Z,3.38
2022-12-24T12:33:52.196Z,3.70
2022-12-24T12:36:26.860Z,3.60
2022-12-24T12:38:53.588Z,3.53
2022-12-24T12:41:45.180Z,3.25
2022-12-24T12:44:15.054Z,3.63
2022-12-24T12:46:48.715Z,3.80
2022-12-24T12:49:21.358Z,3.30
2022-12-24T12:52:24.117Z,2.40
2022-12-24T12:55:32.421Z,3.22
2022-12-24T12:58:06.854Z,2.30
2022-12-24T13:00:38.456Z,4.47
2022-12-24T13:03:32.895Z,3.67
2022-12-24T13:06:18.520Z,3.00
2022-12-24T13:09:03.948Z,2.83
2022-12-24T13:11:30.561Z,3.97
2022-12-24T13:14:00.176Z,4.13
2022-12-24T13:16:43.062Z,4.57
2022-12-24T13:19:45.911Z,4.15
2022-12-24T13:22:17.858Z,4.35
2022-12-24T13:24:52.782Z,3.75
2022-12-24T13:27:25.052Z,3.70
2022-12-24T13:30:18.074Z,3.00
2022-12-24T13:32:55.203Z,4.97
2022-12-24T13:35:21.803Z,4.10
2022-12-24T13:37:49.884Z,3.75
2022-12-24T13:40:26.495Z,3.58
2022-12-24T13:42:59.379Z,3.60
2022-12-24T13:45:29.006Z,3.17
2022-12-24T13:48:07.970Z,3.28
2022-12-24T13:51:16.364Z,2.67
2022-12-24T13:53:45.881Z,2.72
2022-12-24T13:56:12.498Z,3.45
2022-12-24T13:58:47.365Z,3.47
2022-12-24T14:01:19.003Z,4.45
2022-12-24T14:03:47.977Z,3.10
2022-12-24T14:06:40.898Z,3.10
2022-12-24T14:09:16.552Z,3.00
2022-12-24T14:12:01.693Z,4.10
2022-12-24T14:14:35.009Z,3.13
2022-12-24T14:17:06.085Z,4.07
2022-12-24T14:19:43.131Z,3.22
2022-12-24T14:22:28.553Z,3.25
2022-12-24T14:25:16.546Z,3.53
2022-12-24T14:27:55.000Z,3.92
2022-12-24T14:30:25.634Z,3.80
2022-12-24T14:32:53.701Z,3.53
2022-12-24T14:35:24.640Z,3.92
2022-12-24T14:38:08.139Z,2.70
2022-12-24T14:43:17.915Z,2.40
2022-12-24T14:46:07.396Z,2.22
2022-12-24T14:48:42.918Z,2.78
2022-12-24T14:51:21.568Z,3.65
2022-12-24T14:54:30.822Z,3.10
2022-12-24T14:57:14.425Z,2.58
2022-12-24T15:00:02.440Z,1.80
2022-12-24T15:02:51.287Z,2.20
2022-12-24T15:05:20.902Z,2.50
2022-12-24T15:07:56.931Z,2.67
2022-12-24T15:10:28.988Z,3.65
2022-12-24T15:12:58.503Z,4.97
2022-12-24T15:15:25.382Z,3.80
2022-12-24T15:17:53.034Z,3.80
2022-12-24T15:20:24.034Z,4.00
2022-12-24T15:22:54.099Z,5.05
2022-12-24T15:25:28.506Z,4.85
2022-12-24T15:27:55.865Z,4.13
2022-12-24T15:30:29.315Z,3.47
2022-12-24T15:32:58.162Z,3.97
2022-12-24T15:35:34.879Z,3.75
2022-12-24T15:38:06.588Z,3.13
2022-12-24T15:40:34.942Z,3.65
2022-12-24T15:43:02.194Z,3.78
2022-12-24T15:45:39.414Z,3.97
2022-12-24T15:48:12.236Z,3.55
2022-12-24T15:50:46.013Z,4.60
2022-12-24T15:53:22.060Z,10.43
2022-12-24T15:56:07.897Z,5.85
2022-12-24T15:58:42.968Z,5.88
2022-12-24T16:01:10.033Z,5.35
2022-12-24T16:03:39.846Z,5.00
2022-12-24T16:06:11.908Z,6.75
2022-12-24T16:08:40.887Z,11.80
2022-12-24T16:11:24.139Z,6.03
2022-12-24T16:13:50.890Z,6.13
2022-12-24T16:16:30.570Z,5.13
2022-12-24T16:18:59.830Z,5.15
2022-12-24T16:21:26.426Z,6.13
2022-12-24T16:23:56.207Z,5.40
2022-12-24T16:26:23.832Z,5.93
2022-12-24T16:28:50.590Z,5.75
2022-12-24T16:31:30.399Z,6.63
2022-12-24T16:33:59.066Z,4.55
2022-12-24T16:36:26.184Z,9.32
2022-12-24T16:39:11.774Z,7.50
2022-12-24T16:41:58.448Z,6.97
2022-12-24T16:44:25.174Z,7.13
2022-12-24T16:46:53.943Z,7.30
2022-12-24T16:49:22.282Z,7.05
2022-12-24T16:51:49.015Z,7.22
2022-12-24T16:54:15.994Z,6.18
2022-12-24T16:56:44.216Z,8.02
2022-12-24T16:59:17.390Z,7.38
2022-12-24T17:04:11.486Z,6.45
2022-12-24T17:06:38.243Z,8.80
2022-12-24T17:09:05.622Z,6.93
2022-12-24T17:11:32.424Z,8.35
2022-12-24T17:14:03.090Z,7.40
2022-12-24T17:16:34.140Z,7.53
2022-12-24T17:19:01.008Z,7.47
2022-12-24T17:21:27.754Z,8.80
2022-12-24T17:23:54.457Z,5.38
2022-12-24T17:26:21.358Z,6.47
2022-12-24T17:28:48.083Z,6.45
2022-12-24T17:31:16.584Z,7.43
2022-12-24T17:33:44.129Z,6.75
2022-12-24T17:36:11.034Z,7.05
2022-12-24T17:38:37.824Z,6.22
2022-12-24T17:41:10.741Z,6.60
2022-12-24T17:43:38.096Z,5.95
2022-12-24T17:46:13.305Z,9.50
2022-12-24T17:48:40.056Z,6.28
2022-12-24T17:51:09.627Z,8.02
2022-12-24T17:53:38.595Z,6.05
2022-12-24T17:56:06.763Z,8.60
2022-12-24T17:58:33.841Z,7.13
2022-12-24T18:01:01.519Z,7.25
2022-12-24T18:03:28.982Z,6.47
2022-12-24T18:05:55.780Z,5.25
2022-12-24T18:08:22.522Z,6.90
2022-12-24T18:10:49.228Z,6.28
2022-12-24T18:13:19.498Z,7.00
2022-12-24T18:15:46.590Z,5.43
2022-12-24T18:18:13.335Z,7.47
2022-12-24T18:20:46.212Z,7.10
2022-12-24T18:23:13.677Z,6.85
2022-12-24T18:25:40.333Z,8.60
2022-12-24T18:28:07.049Z,5.70
2022-12-24T18:30:33.779Z,6.72
2022-12-24T18:33:01.162Z,7.88
2022-12-24T18:35:28.335Z,8.02
2022-12-24T18:37:55.148Z,6.90
2022-12-24T18:40:21.886Z,7.95
2022-12-24T18:42:48.673Z,6.63
2022-12-24T18:45:15.397Z,7.47
2022-12-24T18:47:42.151Z,7.05
2022-12-24T18:50:09.165Z,7.70
2022-12-24T18:52:35.984Z,8.88
2022-12-24T18:55:02.667Z,7.93
2022-12-24T18:57:30.804Z,6.28
2022-12-24T18:59:57.612Z,7.32
2022-12-24T19:02:24.495Z,7.00
2022-12-24T19:04:51.313Z,6.70
2022-12-24T19:07:18.032Z,5.20
2022-12-24T19:09:48.328Z,6.47
2022-12-24T19:12:15.846Z,5.55
2022-12-24T19:14:43.195Z,6.90
2022-12-24T19:17:10.018Z,4.88
2022-12-24T19:19:36.805Z,5.68
2022-12-24T19:22:03.652Z,6.05
2022-12-24T19:24:30.473Z,5.03
2022-12-24T19:26:57.320Z,6.47
2022-12-24T19:29:24.131Z,5.35
2022-12-24T19:31:51.025Z,5.82
2022-12-24T19:34:17.902Z,7.13
2022-12-24T19:36:44.689Z,8.55
2022-12-24T19:39:11.454Z,7.85
2022-12-24T19:41:38.186Z,8.35
2022-12-24T19:44:05.097Z,8.10
2022-12-24T19:46:34.563Z,5.63
2022-12-24T19:49:05.294Z,6.50
2022-12-24T19:51:32.617Z,6.43
2022-12-24T19:54:00.804Z,6.70
2022-12-24T19:56:30.965Z,5.75
2022-12-24T19:58:58.320Z,7.05
2022-12-24T20:01:27.600Z,7.40
2022-12-24T20:03:55.068Z,6.90
2022-12-24T20:06:25.151Z,7.53
2022-12-24T20:08:52.054Z,5.80
2022-12-24T20:11:20.987Z,6.43
2022-12-24T20:13:47.720Z,7.55
2022-12-24T20:16:18.582Z,6.93
2022-12-24T20:18:51.948Z,8.25
2022-12-24T20:21:18.687Z,6.55
2022-12-24T20:23:45.370Z,6.60
2022-12-24T20:26:14.731Z,7.57
2022-12-24T20:28:42.008Z,7.05
2022-12-24T20:31:20.361Z,5.93
2022-12-24T20:33:47.860Z,5.95
2022-12-24T20:36:17.029Z,6.53
2022-12-24T20:38:44.059Z,5.65
2022-12-24T20:41:12.364Z,6.68
2022-12-24T20:43:47.133Z,6.20
2022-12-24T20:46:15.063Z,6.93
2022-12-24T20:48:41.909Z,7.28
2022-12-24T20:51:11.523Z,6.65
2022-12-24T20:53:39.308Z,6.30
2022-12-24T20:56:06.343Z,6.57
2022-12-24T20:58:33.556Z,7.40
2022-12-24T21:01:00.339Z,7.45
2022-12-24T21:03:27.109Z,7.03
2022-12-24T21:05:53.781Z,6.28
2022-12-24T21:08:20.460Z,7.28
2022-12-24T21:10:47.404Z,8.43
2022-12-24T21:13:14.096Z,6.03
2022-12-24T21:15:40.946Z,5.15
2022-12-24T21:18:12.214Z,5.85
2022-12-24T21:20:41.796Z,4.00
2022-12-24T21:23:09.947Z,5.70
2022-12-24T21:25:38.030Z,5.45
2022-12-24T21:28:04.957Z,5.40
2022-12-24T21:30:32.420Z,6.90
2022-12-24T21:32:59.256Z,6.55
2022-12-24T21:35:26.005Z,7.22
2022-12-24T21:37:52.715Z,6.75
2022-12-24T21:40:19.424Z,7.07
2022-12-24T21:42:46.108Z,7.03
2022-12-24T21:45:12.909Z,6.90
2022-12-24T21:47:39.614Z,6.45
2022-12-24T21:50:31.629Z,6.65
2022-12-24T21:53:18.812Z,6.82
2022-12-24T21:55:45.518Z,6.90
2022-12-24T21:58:12.487Z,5.75
2022-12-24T22:00:39.469Z,4.72
2022-12-24T22:03:06.685Z,5.57
2022-12-24T22:05:35.213Z,5.05
2022-12-24T22:08:20.740Z,3.90
2022-12-24T22:11:05.972Z,4.78
2022-12-24T22:13:32.855Z,5.90
2022-12-24T22:15:59.539Z,4.53
2022-12-24T22:18:26.846Z,5.10
2022-12-24T22:20:53.769Z,6.25
2022-12-24T22:23:20.441Z,4.97
2022-12-24T22:25:47.544Z,5.32
2022-12-24T22:28:14.545Z,6.28
2022-12-24T22:30:42.890Z,4.78
2022-12-24T22:33:10.311Z,4.57
2022-12-24T22:35:41.244Z,5.60
2022-12-24T22:38:09.327Z,5.85
2022-12-24T22:40:38.707Z,4.55
2022-12-24T22:43:05.581Z,4.78
2022-12-24T22:45:32.444Z,5.85
2022-12-24T22:47:59.090Z,5.82
2022-12-24T22:50:25.783Z,4.85
2022-12-24T22:52:54.012Z,3.53
2022-12-24T22:55:21.304Z,3.80
2022-12-24T22:57:48.763Z,3.35
2022-12-24T23:00:36.969Z,3.42
2022-12-24T23:03:04.772Z,3.28
2022-12-24T23:05:31.670Z,2.92
2022-12-24T23:07:58.717Z,2.40
2022-12-24T23:10:25.401Z,2.63
2022-12-24T23:13:14.782Z,2.65
2022-12-24T23:15:42.149Z,3.22
2022-12-24T23:18:09.404Z,1.77
2022-12-24T23:20:41.011Z,2.15
2022-12-24T23:23:07.914Z,2.00
2022-12-24T23:25:35.320Z,2.53
2022-12-24T23:28:02.041Z,1.85
2022-12-24T23:30:29.068Z,2.05
2022-12-24T23:32:55.848Z,1.92
2022-12-24T23:35:22.746Z,1.65
2022-12-24T23:37:49.490Z,1.92
2022-12-24T23:40:16.313Z,2.00
2022-12-24T23:42:43.028Z,1.67
2022-12-24T23:45:10.128Z,1.30
2022-12-24T23:47:36.782Z,2.00
2022-12-24T23:50:06.290Z,1.40
2022-12-24T23:52:33.904Z,1.55
2022-12-24T23:55:00.617Z,1.50
2022-12-24T23:57:27.387Z,1.63
2022-12-24T23:59:54.263Z,1.40
